Fordoche, Louisiana
Current Conditions -  °F | °C
As of 7:35 AM on Wednesday 22 Oct 2014 (Local Time) from KHZR Reporting Station
Clear Clear  
Wind Chill: 60°   Ceiling: Unl
Heat Index: 60°   Visibility: 10mi
Dew Point: 54°   Wind: 7mph
Humidity: 81%   Direction: 50°NE
Pressure: 30.09"   Gusts: NA
Location:  30.6°N, 91.62°W
Report Text: KHZR 221235Z AUTO 05006KT 10SM CLR 16/12 A3009 RMK AO2 T01550122
Loading
Personal Weather Stations






























Interactive Weather Map
Tropical Storm Tracking
New forecast layout! Learn more

10-Day Weather Forecast

Advertisements
Track Severe Weather on mobile